sensor_id;sensor_type;location;lat;lon;timestamp;P1;durP1;ratioP1;P2;durP2;ratioP2
58242;SDS011;50118;53.232;8.252;2024-02-28T00:00:09;59.25;;;25.25;;
58242;SDS011;50118;53.232;8.252;2024-02-28T00:02:36;47.47;;;21.88;;
58242;SDS011;50118;53.232;8.252;2024-02-28T00:05:01;40.33;;;17.73;;
58242;SDS011;50118;53.232;8.252;2024-02-28T00:07:27;36.30;;;17.13;;
58242;SDS011;50118;53.232;8.252;2024-02-28T00:09:52;34.05;;;15.50;;
58242;SDS011;50118;53.232;8.252;2024-02-28T00:12:22;34.47;;;15.18;;
58242;SDS011;50118;53.232;8.252;2024-02-28T00:14:50;32.60;;;14.13;;
58242;SDS011;50118;53.232;8.252;2024-02-28T00:17:15;35.78;;;15.57;;
58242;SDS011;50118;53.232;8.252;2024-02-28T00:19:41;37.30;;;15.90;;
58242;SDS011;50118;53.232;8.252;2024-02-28T00:22:08;36.63;;;15.52;;
58242;SDS011;50118;53.232;8.252;2024-02-28T00:24:34;35.88;;;15.27;;
58242;SDS011;50118;53.232;8.252;2024-02-28T00:27:00;40.85;;;16.35;;
58242;SDS011;50118;53.232;8.252;2024-02-28T00:29:26;37.83;;;15.85;;
58242;SDS011;50118;53.232;8.252;2024-02-28T00:31:51;36.58;;;15.35;;
58242;SDS011;50118;53.232;8.252;2024-02-28T00:34:17;41.20;;;15.02;;
58242;SDS011;50118;53.232;8.252;2024-02-28T00:36:42;37.90;;;14.65;;
58242;SDS011;50118;53.232;8.252;2024-02-28T00:39:08;40.53;;;15.68;;
58242;SDS011;50118;53.232;8.252;2024-02-28T00:41:34;38.95;;;14.80;;
58242;SDS011;50118;53.232;8.252;2024-02-28T00:43:59;39.88;;;15.95;;
58242;SDS011;50118;53.232;8.252;2024-02-28T00:46:25;39.13;;;14.23;;
58242;SDS011;50118;53.232;8.252;2024-02-28T00:48:50;36.20;;;15.02;;
58242;SDS011;50118;53.232;8.252;2024-02-28T00:51:15;35.03;;;12.48;;
58242;SDS011;50118;53.232;8.252;2024-02-28T00:53:41;36.45;;;13.88;;
58242;SDS011;50118;53.232;8.252;2024-02-28T00:56:08;38.97;;;13.50;;
58242;SDS011;50118;53.232;8.252;2024-02-28T00:58:33;40.42;;;13.60;;
58242;SDS011;50118;53.232;8.252;2024-02-28T01:00:59;46.58;;;15.25;;
58242;SDS011;50118;53.232;8.252;2024-02-28T01:03:24;40.50;;;14.93;;
58242;SDS011;50118;53.232;8.252;2024-02-28T01:05:50;41.65;;;15.18;;
58242;SDS011;50118;53.232;8.252;2024-02-28T01:08:18;39.63;;;15.30;;
58242;SDS011;50118;53.232;8.252;2024-02-28T01:10:44;37.65;;;14.43;;
58242;SDS011;50118;53.232;8.252;2024-02-28T01:13:09;38.05;;;14.60;;
58242;SDS011;50118;53.232;8.252;2024-02-28T01:15:35;35.15;;;13.00;;
58242;SDS011;50118;53.232;8.252;2024-02-28T01:18:00;36.28;;;14.77;;
58242;SDS011;50118;53.232;8.252;2024-02-28T01:20:26;37.97;;;15.00;;
58242;SDS011;50118;53.232;8.252;2024-02-28T01:22:51;37.60;;;14.63;;
58242;SDS011;50118;53.232;8.252;2024-02-28T01:25:18;39.15;;;13.98;;
58242;SDS011;50118;53.232;8.252;2024-02-28T01:27:43;39.65;;;15.30;;
58242;SDS011;50118;53.232;8.252;2024-02-28T01:30:09;36.17;;;14.13;;
58242;SDS011;50118;53.232;8.252;2024-02-28T01:32:35;43.38;;;15.23;;
58242;SDS011;50118;53.232;8.252;2024-02-28T01:35:02;41.83;;;14.77;;
58242;SDS011;50118;53.232;8.252;2024-02-28T01:37:28;43.92;;;15.65;;
58242;SDS011;50118;53.232;8.252;2024-02-28T01:39:53;42.40;;;14.93;;
58242;SDS011;50118;53.232;8.252;2024-02-28T01:42:19;41.35;;;14.02;;
58242;SDS011;50118;53.232;8.252;2024-02-28T01:44:45;41.65;;;13.93;;
58242;SDS011;50118;53.232;8.252;2024-02-28T01:47:13;39.88;;;14.73;;
58242;SDS011;50118;53.232;8.252;2024-02-28T01:49:39;44.28;;;15.38;;
58242;SDS011;50118;53.232;8.252;2024-02-28T01:52:06;48.60;;;17.00;;
58242;SDS011;50118;53.232;8.252;2024-02-28T01:54:32;46.38;;;16.02;;
58242;SDS011;50118;53.232;8.252;2024-02-28T01:57:00;47.42;;;17.98;;
58242;SDS011;50118;53.232;8.252;2024-02-28T01:59:26;49.08;;;17.40;;
58242;SDS011;50118;53.232;8.252;2024-02-28T02:01:53;49.10;;;16.35;;
58242;SDS011;50118;53.232;8.252;2024-02-28T02:04:19;52.00;;;17.02;;
58242;SDS011;50118;53.232;8.252;2024-02-28T02:06:45;50.85;;;16.58;;
58242;SDS011;50118;53.232;8.252;2024-02-28T02:09:12;48.58;;;16.63;;
58242;SDS011;50118;53.232;8.252;2024-02-28T02:11:38;49.53;;;17.90;;
58242;SDS011;50118;53.232;8.252;2024-02-28T02:14:04;52.83;;;18.00;;
58242;SDS011;50118;53.232;8.252;2024-02-28T02:16:29;55.30;;;18.40;;
58242;SDS011;50118;53.232;8.252;2024-02-28T02:18:55;46.55;;;16.35;;
58242;SDS011;50118;53.232;8.252;2024-02-28T02:21:24;52.30;;;18.55;;
58242;SDS011;50118;53.232;8.252;2024-02-28T02:23:55;57.67;;;19.58;;
58242;SDS011;50118;53.232;8.252;2024-02-28T02:26:20;59.20;;;20.02;;
58242;SDS011;50118;53.232;8.252;2024-02-28T02:28:46;72.95;;;23.83;;
58242;SDS011;50118;53.232;8.252;2024-02-28T02:31:13;73.72;;;20.60;;
58242;SDS011;50118;53.232;8.252;2024-02-28T02:33:39;73.07;;;22.02;;
58242;SDS011;50118;53.232;8.252;2024-02-28T02:36:04;74.00;;;23.08;;
58242;SDS011;50118;53.232;8.252;2024-02-28T02:38:30;74.30;;;22.23;;
58242;SDS011;50118;53.232;8.252;2024-02-28T02:40:55;80.00;;;24.38;;
58242;SDS011;50118;53.232;8.252;2024-02-28T02:43:21;81.80;;;24.23;;
58242;SDS011;50118;53.232;8.252;2024-02-28T02:45:47;90.32;;;26.17;;
58242;SDS011;50118;53.232;8.252;2024-02-28T02:48:12;90.55;;;25.88;;
58242;SDS011;50118;53.232;8.252;2024-02-28T02:50:37;85.05;;;25.98;;
58242;SDS011;50118;53.232;8.252;2024-02-28T02:53:03;90.85;;;27.35;;
58242;SDS011;50118;53.232;8.252;2024-02-28T02:55:29;85.53;;;26.58;;
58242;SDS011;50118;53.232;8.252;2024-02-28T02:57:55;88.53;;;27.52;;
58242;SDS011;50118;53.232;8.252;2024-02-28T03:00:21;91.32;;;27.58;;
58242;SDS011;50118;53.232;8.252;2024-02-28T03:02:47;96.28;;;27.00;;
58242;SDS011;50118;53.232;8.252;2024-02-28T03:05:13;89.47;;;25.77;;
58242;SDS011;50118;53.232;8.252;2024-02-28T03:07:38;96.00;;;29.00;;
58242;SDS011;50118;53.232;8.252;2024-02-28T03:10:04;95.35;;;27.52;;
58242;SDS011;50118;53.232;8.252;2024-02-28T03:12:30;97.55;;;29.58;;
58242;SDS011;50118;53.232;8.252;2024-02-28T03:14:56;98.90;;;27.50;;
58242;SDS011;50118;53.232;8.252;2024-02-28T03:17:22;95.80;;;28.63;;
58242;SDS011;50118;53.232;8.252;2024-02-28T03:19:48;93.90;;;26.88;;
58242;SDS011;50118;53.232;8.252;2024-02-28T03:22:13;80.43;;;25.48;;
58242;SDS011;50118;53.232;8.252;2024-02-28T03:24:39;92.43;;;26.98;;
58242;SDS011;50118;53.232;8.252;2024-02-28T03:27:05;89.22;;;26.77;;
58242;SDS011;50118;53.232;8.252;2024-02-28T03:29:30;89.50;;;26.40;;
58242;SDS011;50118;53.232;8.252;2024-02-28T03:31:56;83.43;;;26.33;;
58242;SDS011;50118;53.232;8.252;2024-02-28T03:34:23;82.15;;;25.25;;
58242;SDS011;50118;53.232;8.252;2024-02-28T03:36:48;84.68;;;26.45;;
58242;SDS011;50118;53.232;8.252;2024-02-28T03:39:14;78.43;;;24.42;;
58242;SDS011;50118;53.232;8.252;2024-02-28T03:41:39;74.10;;;23.48;;
58242;SDS011;50118;53.232;8.252;2024-02-28T03:44:05;79.70;;;25.90;;
58242;SDS011;50118;53.232;8.252;2024-02-28T03:46:31;75.45;;;23.75;;
58242;SDS011;50118;53.232;8.252;2024-02-28T03:48:56;72.90;;;22.88;;
58242;SDS011;50118;53.232;8.252;2024-02-28T03:51:22;75.38;;;25.80;;
58242;SDS011;50118;53.232;8.252;2024-02-28T03:53:47;70.32;;;22.25;;
58242;SDS011;50118;53.232;8.252;2024-02-28T03:56:13;69.00;;;22.95;;
58242;SDS011;50118;53.232;8.252;2024-02-28T03:58:46;69.40;;;23.98;;
58242;SDS011;50118;53.232;8.252;2024-02-28T04:01:11;64.60;;;21.30;;
58242;SDS011;50118;53.232;8.252;2024-02-28T04:03:37;62.20;;;21.13;;
58242;SDS011;50118;53.232;8.252;2024-02-28T04:06:02;67.10;;;21.67;;
58242;SDS011;50118;53.232;8.252;2024-02-28T04:08:28;68.32;;;21.25;;
58242;SDS011;50118;53.232;8.252;2024-02-28T04:10:53;75.95;;;25.33;;
58242;SDS011;50118;53.232;8.252;2024-02-28T04:13:19;68.35;;;20.45;;
58242;SDS011;50118;53.232;8.252;2024-02-28T04:15:44;64.13;;;22.50;;
58242;SDS011;50118;53.232;8.252;2024-02-28T04:18:11;69.57;;;23.35;;
58242;SDS011;50118;53.232;8.252;2024-02-28T04:20:37;76.45;;;24.45;;
58242;SDS011;50118;53.232;8.252;2024-02-28T04:23:03;60.78;;;21.45;;
58242;SDS011;50118;53.232;8.252;2024-02-28T04:25:29;59.90;;;20.45;;
58242;SDS011;50118;53.232;8.252;2024-02-28T04:27:54;56.83;;;19.02;;
58242;SDS011;50118;53.232;8.252;2024-02-28T04:30:19;52.08;;;18.13;;
58242;SDS011;50118;53.232;8.252;2024-02-28T04:32:45;50.17;;;19.48;;
58242;SDS011;50118;53.232;8.252;2024-02-28T04:35:10;55.80;;;18.63;;
58242;SDS011;50118;53.232;8.252;2024-02-28T04:37:36;46.65;;;18.52;;
58242;SDS011;50118;53.232;8.252;2024-02-28T04:40:02;55.15;;;18.15;;
58242;SDS011;50118;53.232;8.252;2024-02-28T04:42:28;54.40;;;19.98;;
58242;SDS011;50118;53.232;8.252;2024-02-28T04:44:54;52.88;;;19.05;;
58242;SDS011;50118;53.232;8.252;2024-02-28T04:47:19;51.28;;;19.00;;
58242;SDS011;50118;53.232;8.252;2024-02-28T04:49:44;56.13;;;18.92;;
58242;SDS011;50118;53.232;8.252;2024-02-28T04:52:10;56.63;;;19.52;;
58242;SDS011;50118;53.232;8.252;2024-02-28T04:54:35;53.85;;;17.65;;
58242;SDS011;50118;53.232;8.252;2024-02-28T04:57:01;52.90;;;19.00;;
58242;SDS011;50118;53.232;8.252;2024-02-28T04:59:27;56.15;;;19.92;;
58242;SDS011;50118;53.232;8.252;2024-02-28T05:01:53;60.25;;;21.33;;
58242;SDS011;50118;53.232;8.252;2024-02-28T05:04:18;57.47;;;19.10;;
58242;SDS011;50118;53.232;8.252;2024-02-28T05:06:44;59.20;;;21.58;;
58242;SDS011;50118;53.232;8.252;2024-02-28T05:09:10;60.50;;;20.92;;
58242;SDS011;50118;53.232;8.252;2024-02-28T05:11:35;61.88;;;20.92;;
58242;SDS011;50118;53.232;8.252;2024-02-28T05:14:00;63.05;;;21.50;;
58242;SDS011;50118;53.232;8.252;2024-02-28T05:16:26;72.10;;;23.42;;
58242;SDS011;50118;53.232;8.252;2024-02-28T05:18:51;66.00;;;21.23;;
58242;SDS011;50118;53.232;8.252;2024-02-28T05:21:17;69.57;;;21.95;;
58242;SDS011;50118;53.232;8.252;2024-02-28T05:23:42;76.43;;;24.27;;
58242;SDS011;50118;53.232;8.252;2024-02-28T05:26:08;71.68;;;24.45;;
58242;SDS011;50118;53.232;8.252;2024-02-28T05:28:33;73.15;;;24.42;;
58242;SDS011;50118;53.232;8.252;2024-02-28T05:31:22;70.57;;;22.25;;
58242;SDS011;50118;53.232;8.252;2024-02-28T05:33:52;63.65;;;20.70;;
58242;SDS011;50118;53.232;8.252;2024-02-28T05:36:19;66.72;;;22.48;;
58242;SDS011;50118;53.232;8.252;2024-02-28T05:38:46;69.10;;;22.48;;
58242;SDS011;50118;53.232;8.252;2024-02-28T05:41:12;74.18;;;23.25;;
58242;SDS011;50118;53.232;8.252;2024-02-28T05:43:37;76.53;;;23.45;;
58242;SDS011;50118;53.232;8.252;2024-02-28T05:46:03;81.20;;;24.15;;
58242;SDS011;50118;53.232;8.252;2024-02-28T05:48:29;83.57;;;26.05;;
58242;SDS011;50118;53.232;8.252;2024-02-28T05:50:54;77.80;;;23.95;;
58242;SDS011;50118;53.232;8.252;2024-02-28T05:53:19;78.72;;;22.23;;
58242;SDS011;50118;53.232;8.252;2024-02-28T05:55:46;80.22;;;23.08;;
58242;SDS011;50118;53.232;8.252;2024-02-28T05:58:11;85.28;;;25.27;;
58242;SDS011;50118;53.232;8.252;2024-02-28T06:00:38;78.07;;;22.48;;
58242;SDS011;50118;53.232;8.252;2024-02-28T06:03:04;86.35;;;25.00;;
58242;SDS011;50118;53.232;8.252;2024-02-28T06:05:30;82.53;;;24.38;;
58242;SDS011;50118;53.232;8.252;2024-02-28T06:07:55;82.07;;;23.17;;
58242;SDS011;50118;53.232;8.252;2024-02-28T06:10:21;71.97;;;23.83;;
58242;SDS011;50118;53.232;8.252;2024-02-28T06:12:47;79.60;;;24.65;;
58242;SDS011;50118;53.232;8.252;2024-02-28T06:15:12;79.50;;;23.23;;
58242;SDS011;50118;53.232;8.252;2024-02-28T06:17:37;88.40;;;25.40;;
58242;SDS011;50118;53.232;8.252;2024-02-28T06:20:04;80.03;;;23.27;;
58242;SDS011;50118;53.232;8.252;2024-02-28T06:22:31;91.45;;;26.58;;
58242;SDS011;50118;53.232;8.252;2024-02-28T06:24:57;87.35;;;25.80;;
58242;SDS011;50118;53.232;8.252;2024-02-28T06:27:22;82.88;;;24.67;;
58242;SDS011;50118;53.232;8.252;2024-02-28T06:29:47;85.53;;;23.73;;
58242;SDS011;50118;53.232;8.252;2024-02-28T06:32:14;84.97;;;24.95;;
58242;SDS011;50118;53.232;8.252;2024-02-28T06:34:39;79.47;;;24.27;;
58242;SDS011;50118;53.232;8.252;2024-02-28T06:37:05;97.60;;;27.40;;
58242;SDS011;50118;53.232;8.252;2024-02-28T06:39:30;76.85;;;24.40;;
58242;SDS011;50118;53.232;8.252;2024-02-28T06:41:56;96.60;;;26.88;;
58242;SDS011;50118;53.232;8.252;2024-02-28T06:44:21;83.47;;;23.25;;
58242;SDS011;50118;53.232;8.252;2024-02-28T06:46:46;84.78;;;26.38;;
58242;SDS011;50118;53.232;8.252;2024-02-28T06:49:12;83.97;;;24.92;;
58242;SDS011;50118;53.232;8.252;2024-02-28T06:51:37;86.00;;;24.02;;
58242;SDS011;50118;53.232;8.252;2024-02-28T06:54:03;78.78;;;23.10;;
58242;SDS011;50118;53.232;8.252;2024-02-28T06:56:30;86.60;;;25.63;;
58242;SDS011;50118;53.232;8.252;2024-02-28T06:58:55;88.75;;;26.58;;
58242;SDS011;50118;53.232;8.252;2024-02-28T07:01:21;82.30;;;26.90;;
58242;SDS011;50118;53.232;8.252;2024-02-28T07:03:46;72.63;;;23.45;;
58242;SDS011;50118;53.232;8.252;2024-02-28T07:06:12;81.32;;;24.50;;
58242;SDS011;50118;53.232;8.252;2024-02-28T07:08:37;82.90;;;24.35;;
58242;SDS011;50118;53.232;8.252;2024-02-28T07:11:03;75.38;;;24.27;;
58242;SDS011;50118;53.232;8.252;2024-02-28T07:13:29;78.55;;;23.70;;
58242;SDS011;50118;53.232;8.252;2024-02-28T07:15:54;85.20;;;26.95;;
58242;SDS011;50118;53.232;8.252;2024-02-28T07:18:22;78.30;;;22.92;;
58242;SDS011;50118;53.232;8.252;2024-02-28T07:20:50;82.05;;;24.08;;
58242;SDS011;50118;53.232;8.252;2024-02-28T07:23:17;77.82;;;24.67;;
58242;SDS011;50118;53.232;8.252;2024-02-28T07:25:42;78.80;;;24.42;;
58242;SDS011;50118;53.232;8.252;2024-02-28T07:28:08;78.68;;;23.95;;
58242;SDS011;50118;53.232;8.252;2024-02-28T07:30:34;72.68;;;23.25;;
58242;SDS011;50118;53.232;8.252;2024-02-28T07:33:00;88.28;;;27.92;;
58242;SDS011;50118;53.232;8.252;2024-02-28T07:35:27;79.82;;;25.30;;
58242;SDS011;50118;53.232;8.252;2024-02-28T07:37:52;72.13;;;24.58;;
58242;SDS011;50118;53.232;8.252;2024-02-28T07:40:18;71.50;;;24.42;;
58242;SDS011;50118;53.232;8.252;2024-02-28T07:42:43;72.53;;;25.27;;
58242;SDS011;50118;53.232;8.252;2024-02-28T07:45:09;70.93;;;23.67;;
58242;SDS011;50118;53.232;8.252;2024-02-28T07:47:35;70.30;;;23.40;;
58242;SDS011;50118;53.232;8.252;2024-02-28T07:50:00;67.53;;;21.90;;
58242;SDS011;50118;53.232;8.252;2024-02-28T07:52:26;64.07;;;23.05;;
58242;SDS011;50118;53.232;8.252;2024-02-28T07:54:51;65.40;;;21.60;;
58242;SDS011;50118;53.232;8.252;2024-02-28T07:57:16;68.00;;;24.45;;
58242;SDS011;50118;53.232;8.252;2024-02-28T07:59:42;68.38;;;23.70;;
58242;SDS011;50118;53.232;8.252;2024-02-28T08:02:08;71.32;;;24.80;;
58242;SDS011;50118;53.232;8.252;2024-02-28T08:04:34;65.18;;;24.08;;
58242;SDS011;50118;53.232;8.252;2024-02-28T08:07:00;60.33;;;20.98;;
58242;SDS011;50118;53.232;8.252;2024-02-28T08:09:25;67.20;;;23.50;;
58242;SDS011;50118;53.232;8.252;2024-02-28T08:11:51;61.72;;;22.17;;
58242;SDS011;50118;53.232;8.252;2024-02-28T08:14:16;58.58;;;21.90;;
58242;SDS011;50118;53.232;8.252;2024-02-28T08:16:42;67.95;;;25.35;;
58242;SDS011;50118;53.232;8.252;2024-02-28T08:19:08;60.42;;;21.65;;
58242;SDS011;50118;53.232;8.252;2024-02-28T08:21:33;57.75;;;22.30;;
58242;SDS011;50118;53.232;8.252;2024-02-28T08:23:59;59.20;;;21.13;;
58242;SDS011;50118;53.232;8.252;2024-02-28T08:26:24;63.45;;;23.10;;
58242;SDS011;50118;53.232;8.252;2024-02-28T08:28:50;61.10;;;22.05;;
58242;SDS011;50118;53.232;8.252;2024-02-28T08:31:16;57.38;;;22.40;;
58242;SDS011;50118;53.232;8.252;2024-02-28T08:33:41;52.67;;;21.33;;
58242;SDS011;50118;53.232;8.252;2024-02-28T08:36:06;56.83;;;21.83;;
58242;SDS011;50118;53.232;8.252;2024-02-28T08:38:32;54.03;;;21.67;;
58242;SDS011;50118;53.232;8.252;2024-02-28T08:40:57;54.53;;;21.75;;
58242;SDS011;50118;53.232;8.252;2024-02-28T08:43:23;51.33;;;20.70;;
58242;SDS011;50118;53.232;8.252;2024-02-28T08:45:48;49.55;;;21.00;;
58242;SDS011;50118;53.232;8.252;2024-02-28T08:48:16;55.63;;;21.67;;
58242;SDS011;50118;53.232;8.252;2024-02-28T08:50:42;50.28;;;21.45;;
58242;SDS011;50118;53.232;8.252;2024-02-28T08:53:07;47.58;;;21.15;;
58242;SDS011;50118;53.232;8.252;2024-02-28T08:55:33;49.05;;;21.13;;
58242;SDS011;50118;53.232;8.252;2024-02-28T08:57:58;48.75;;;21.20;;
58242;SDS011;50118;53.232;8.252;2024-02-28T09:00:24;52.47;;;20.27;;
58242;SDS011;50118;53.232;8.252;2024-02-28T09:02:50;50.97;;;20.13;;
58242;SDS011;50118;53.232;8.252;2024-02-28T09:05:15;53.25;;;22.98;;
58242;SDS011;50118;53.232;8.252;2024-02-28T09:07:41;50.17;;;21.75;;
58242;SDS011;50118;53.232;8.252;2024-02-28T09:10:06;52.38;;;23.42;;
58242;SDS011;50118;53.232;8.252;2024-02-28T09:12:32;51.35;;;21.00;;
58242;SDS011;50118;53.232;8.252;2024-02-28T09:14:58;48.03;;;20.88;;
58242;SDS011;50118;53.232;8.252;2024-02-28T09:17:24;51.13;;;22.13;;
58242;SDS011;50118;53.232;8.252;2024-02-28T09:19:49;50.45;;;21.60;;
58242;SDS011;50118;53.232;8.252;2024-02-28T09:22:15;49.65;;;21.05;;
58242;SDS011;50118;53.232;8.252;2024-02-28T09:24:42;48.30;;;19.60;;
58242;SDS011;50118;53.232;8.252;2024-02-28T09:27:07;49.42;;;21.95;;
58242;SDS011;50118;53.232;8.252;2024-02-28T09:29:33;48.13;;;19.50;;
58242;SDS011;50118;53.232;8.252;2024-02-28T09:31:58;43.78;;;19.38;;
58242;SDS011;50118;53.232;8.252;2024-02-28T09:34:24;46.08;;;20.48;;
58242;SDS011;50118;53.232;8.252;2024-02-28T09:36:49;45.22;;;20.40;;
58242;SDS011;50118;53.232;8.252;2024-02-28T09:39:15;48.70;;;21.13;;
58242;SDS011;50118;53.232;8.252;2024-02-28T09:41:41;49.55;;;21.42;;
58242;SDS011;50118;53.232;8.252;2024-02-28T09:44:07;48.67;;;20.67;;
58242;SDS011;50118;53.232;8.252;2024-02-28T09:46:33;51.17;;;23.27;;
58242;SDS011;50118;53.232;8.252;2024-02-28T09:49:04;49.65;;;22.98;;
58242;SDS011;50118;53.232;8.252;2024-02-28T09:51:34;47.45;;;21.02;;
58242;SDS011;50118;53.232;8.252;2024-02-28T09:54:03;49.67;;;21.35;;
58242;SDS011;50118;53.232;8.252;2024-02-28T09:56:30;47.05;;;21.20;;
58242;SDS011;50118;53.232;8.252;2024-02-28T09:59:01;49.83;;;20.03;;
58242;SDS011;50118;53.232;8.252;2024-02-28T10:01:28;49.60;;;20.60;;
58242;SDS011;50118;53.232;8.252;2024-02-28T10:03:54;51.85;;;22.13;;
58242;SDS011;50118;53.232;8.252;2024-02-28T10:06:21;49.13;;;21.00;;
58242;SDS011;50118;53.232;8.252;2024-02-28T10:08:53;51.80;;;21.27;;
58242;SDS011;50118;53.232;8.252;2024-02-28T10:11:21;46.50;;;19.95;;
58242;SDS011;50118;53.232;8.252;2024-02-28T10:13:48;48.55;;;21.45;;
58242;SDS011;50118;53.232;8.252;2024-02-28T10:16:15;47.72;;;20.00;;
58242;SDS011;50118;53.232;8.252;2024-02-28T10:18:44;40.65;;;19.17;;
58242;SDS011;50118;53.232;8.252;2024-02-28T10:21:10;47.13;;;20.83;;
58242;SDS011;50118;53.232;8.252;2024-02-28T10:23:37;45.80;;;20.55;;
58242;SDS011;50118;53.232;8.252;2024-02-28T10:26:03;44.05;;;19.90;;
58242;SDS011;50118;53.232;8.252;2024-02-28T10:28:29;50.47;;;22.30;;
58242;SDS011;50118;53.232;8.252;2024-02-28T10:30:54;45.42;;;21.10;;
58242;SDS011;50118;53.232;8.252;2024-02-28T10:33:20;41.15;;;19.67;;
58242;SDS011;50118;53.232;8.252;2024-02-28T10:35:46;45.20;;;20.63;;
58242;SDS011;50118;53.232;8.252;2024-02-28T10:38:17;44.45;;;20.20;;
58242;SDS011;50118;53.232;8.252;2024-02-28T10:40:42;43.30;;;20.08;;
58242;SDS011;50118;53.232;8.252;2024-02-28T10:43:08;44.90;;;20.98;;
58242;SDS011;50118;53.232;8.252;2024-02-28T10:45:38;44.83;;;21.80;;
58242;SDS011;50118;53.232;8.252;2024-02-28T10:48:05;43.05;;;20.35;;
58242;SDS011;50118;53.232;8.252;2024-02-28T10:50:32;42.55;;;19.58;;
58242;SDS011;50118;53.232;8.252;2024-02-28T10:53:02;44.85;;;20.48;;
58242;SDS011;50118;53.232;8.252;2024-02-28T10:55:34;39.80;;;19.52;;
58242;SDS011;50118;53.232;8.252;2024-02-28T10:58:08;43.70;;;20.27;;
58242;SDS011;50118;53.232;8.252;2024-02-28T11:00:35;49.08;;;20.00;;
58242;SDS011;50118;53.232;8.252;2024-02-28T11:03:03;43.67;;;19.67;;
58242;SDS011;50118;53.232;8.252;2024-02-28T11:05:40;47.15;;;20.73;;
58242;SDS011;50118;53.232;8.252;2024-02-28T11:08:10;45.38;;;20.10;;
58242;SDS011;50118;53.232;8.252;2024-02-28T11:10:42;74.53;;;42.72;;
58242;SDS011;50118;53.232;8.252;2024-02-28T11:15:36;48.95;;;20.30;;
58242;SDS011;50118;53.232;8.252;2024-02-28T11:20:37;53.47;;;25.73;;
58242;SDS011;50118;53.232;8.252;2024-02-28T11:23:05;55.17;;;24.83;;
58242;SDS011;50118;53.232;8.252;2024-02-28T11:25:31;45.03;;;19.42;;
58242;SDS011;50118;53.232;8.252;2024-02-28T11:27:57;43.45;;;19.63;;
58242;SDS011;50118;53.232;8.252;2024-02-28T11:30:22;49.38;;;20.85;;
58242;SDS011;50118;53.232;8.252;2024-02-28T11:32:51;48.55;;;22.02;;
58242;SDS011;50118;53.232;8.252;2024-02-28T11:35:20;41.63;;;19.85;;
58242;SDS011;50118;53.232;8.252;2024-02-28T11:37:46;43.22;;;21.13;;
58242;SDS011;50118;53.232;8.252;2024-02-28T11:40:16;46.70;;;20.85;;
58242;SDS011;50118;53.232;8.252;2024-02-28T11:42:41;44.58;;;22.67;;
58242;SDS011;50118;53.232;8.252;2024-02-28T11:45:10;43.35;;;19.25;;
58242;SDS011;50118;53.232;8.252;2024-02-28T11:47:36;46.45;;;21.20;;
58242;SDS011;50118;53.232;8.252;2024-02-28T11:50:02;42.55;;;19.23;;
58242;SDS011;50118;53.232;8.252;2024-02-28T11:52:31;41.50;;;19.63;;
58242;SDS011;50118;53.232;8.252;2024-02-28T11:54:57;43.05;;;21.08;;
58242;SDS011;50118;53.232;8.252;2024-02-28T11:57:23;46.47;;;23.13;;
58242;SDS011;50118;53.232;8.252;2024-02-28T11:59:48;45.00;;;23.25;;
58242;SDS011;50118;53.232;8.252;2024-02-28T12:02:17;45.15;;;21.90;;
58242;SDS011;50118;53.232;8.252;2024-02-28T12:04:42;38.97;;;18.73;;
58242;SDS011;50118;53.232;8.252;2024-02-28T12:07:09;40.25;;;19.48;;
58242;SDS011;50118;53.232;8.252;2024-02-28T12:09:35;41.72;;;21.83;;
58242;SDS011;50118;53.232;8.252;2024-02-28T12:12:01;42.40;;;21.40;;
58242;SDS011;50118;53.232;8.252;2024-02-28T12:14:30;34.83;;;19.20;;
58242;SDS011;50118;53.232;8.252;2024-02-28T12:16:58;37.03;;;18.55;;
58242;SDS011;50118;53.232;8.252;2024-02-28T12:19:24;38.15;;;18.67;;
58242;SDS011;50118;53.232;8.252;2024-02-28T12:21:49;43.72;;;22.85;;
58242;SDS011;50118;53.232;8.252;2024-02-28T12:24:15;34.53;;;18.13;;
58242;SDS011;50118;53.232;8.252;2024-02-28T12:26:40;33.17;;;18.42;;
58242;SDS011;50118;53.232;8.252;2024-02-28T12:29:06;36.58;;;19.50;;
58242;SDS011;50118;53.232;8.252;2024-02-28T12:31:32;33.83;;;18.70;;
58242;SDS011;50118;53.232;8.252;2024-02-28T12:33:57;40.85;;;19.23;;
58242;SDS011;50118;53.232;8.252;2024-02-28T12:36:23;37.92;;;19.73;;
58242;SDS011;50118;53.232;8.252;2024-02-28T12:38:50;38.75;;;20.55;;
58242;SDS011;50118;53.232;8.252;2024-02-28T12:41:16;38.67;;;19.10;;
58242;SDS011;50118;53.232;8.252;2024-02-28T12:43:42;37.00;;;19.70;;
58242;SDS011;50118;53.232;8.252;2024-02-28T12:46:08;35.08;;;18.75;;
58242;SDS011;50118;53.232;8.252;2024-02-28T12:48:37;35.83;;;19.70;;
58242;SDS011;50118;53.232;8.252;2024-02-28T12:51:03;36.13;;;18.90;;
58242;SDS011;50118;53.232;8.252;2024-02-28T12:53:30;34.45;;;18.00;;
58242;SDS011;50118;53.232;8.252;2024-02-28T12:55:56;34.38;;;18.63;;
58242;SDS011;50118;53.232;8.252;2024-02-28T12:58:21;39.72;;;21.92;;
58242;SDS011;50118;53.232;8.252;2024-02-28T13:00:48;38.72;;;20.67;;
58242;SDS011;50118;53.232;8.252;2024-02-28T13:03:14;48.55;;;24.75;;
58242;SDS011;50118;53.232;8.252;2024-02-28T13:05:41;43.33;;;22.63;;
58242;SDS011;50118;53.232;8.252;2024-02-28T13:08:06;34.85;;;19.13;;
58242;SDS011;50118;53.232;8.252;2024-02-28T13:10:32;43.40;;;22.75;;
58242;SDS011;50118;53.232;8.252;2024-02-28T13:13:00;47.58;;;24.58;;
58242;SDS011;50118;53.232;8.252;2024-02-28T13:15:27;34.45;;;19.00;;
58242;SDS011;50118;53.232;8.252;2024-02-28T13:17:52;40.65;;;22.48;;
58242;SDS011;50118;53.232;8.252;2024-02-28T13:20:17;39.55;;;23.98;;
58242;SDS011;50118;53.232;8.252;2024-02-28T13:22:43;32.45;;;18.67;;
58242;SDS011;50118;53.232;8.252;2024-02-28T13:25:08;34.45;;;20.73;;
58242;SDS011;50118;53.232;8.252;2024-02-28T13:27:36;35.47;;;19.58;;
58242;SDS011;50118;53.232;8.252;2024-02-28T13:30:02;36.08;;;20.65;;
58242;SDS011;50118;53.232;8.252;2024-02-28T13:32:28;33.30;;;19.35;;
58242;SDS011;50118;53.232;8.252;2024-02-28T13:34:54;31.48;;;18.77;;
58242;SDS011;50118;53.232;8.252;2024-02-28T13:37:19;32.30;;;19.00;;
58242;SDS011;50118;53.232;8.252;2024-02-28T13:39:45;33.22;;;19.42;;
58242;SDS011;50118;53.232;8.252;2024-02-28T13:42:11;35.97;;;20.08;;
58242;SDS011;50118;53.232;8.252;2024-02-28T13:44:36;34.65;;;20.67;;
58242;SDS011;50118;53.232;8.252;2024-02-28T13:47:02;35.55;;;19.77;;
58242;SDS011;50118;53.232;8.252;2024-02-28T13:49:28;33.65;;;20.63;;
58242;SDS011;50118;53.232;8.252;2024-02-28T13:51:54;34.25;;;20.65;;
58242;SDS011;50118;53.232;8.252;2024-02-28T13:54:20;33.13;;;18.17;;
58242;SDS011;50118;53.232;8.252;2024-02-28T13:56:45;34.67;;;20.83;;
58242;SDS011;50118;53.232;8.252;2024-02-28T13:59:11;32.50;;;21.02;;
58242;SDS011;50118;53.232;8.252;2024-02-28T14:01:37;31.83;;;20.08;;
58242;SDS011;50118;53.232;8.252;2024-02-28T14:04:02;33.53;;;20.90;;
58242;SDS011;50118;53.232;8.252;2024-02-28T14:06:28;34.05;;;21.42;;
58242;SDS011;50118;53.232;8.252;2024-02-28T14:08:54;32.08;;;20.73;;
58242;SDS011;50118;53.232;8.252;2024-02-28T14:11:19;33.50;;;21.15;;
58242;SDS011;50118;53.232;8.252;2024-02-28T14:13:45;34.03;;;21.50;;
58242;SDS011;50118;53.232;8.252;2024-02-28T14:16:10;31.67;;;20.17;;
58242;SDS011;50118;53.232;8.252;2024-02-28T14:18:39;39.15;;;23.27;;